Time;durP1;ratioP1;P1;durP2;ratioP2;P2;SDS_P1;SDS_P2;PMS_P1;PMS_P2;Temp;Humidity;BMP_temperature;BMP_pressure;BME280_temperature;BME280_humidity;BME280_pressure;Samples;Min_cycle;Max_cycle;Signal;HPM_P1;HPM_P2
2021/08/12 00:05:00;;;;;;;14.43;10.13;;;;;;;16.04;65.02;100845.31;10230338;28;20367;-74
2021/08/12 00:10:04;;;;;;;15.13;10.07;;;;;;;16.09;64.70;100843.03;10227973;28;20608;-74
2021/08/12 00:15:09;;;;;;;15.40;10.93;;;;;;;16.03;65.08;100840.91;10229571;28;20414;-75
2021/08/12 00:20:12;;;;;;;15.93;11.50;;;;;;;15.94;65.08;100839.13;10228789;28;21411;-74
2021/08/12 00:25:15;;;;;;;15.95;11.45;;;;;;;15.91;65.46;100842.13;10232882;28;20251;-74
2021/08/12 00:30:19;;;;;;;16.02;10.93;;;;;;;15.93;65.00;100831.97;10231075;28;21380;-76
2021/08/12 00:35:23;;;;;;;16.67;10.95;;;;;;;15.92;65.04;100824.84;10228563;28;20255;-75
2021/08/12 00:40:28;;;;;;;15.82;10.93;;;;;;;15.83;65.43;100823.03;10229083;28;20911;-75
2021/08/12 00:45:33;;;;;;;14.52;10.73;;;;;;;15.79;65.31;100824.31;10227524;28;20232;-75
2021/08/12 00:50:40;;;;;;;15.70;11.23;;;;;;;15.59;65.67;100826.25;10228822;28;20259;-75
2021/08/12 00:55:46;;;;;;;14.65;10.40;;;;;;;15.55;66.12;100825.69;10231355;28;20629;-75
2021/08/12 01:00:53;;;;;;;15.95;11.25;;;;;;;15.53;66.18;100822.28;10229194;28;20236;-75
2021/08/12 01:05:57;;;;;;;15.38;10.80;;;;;;;15.49;66.00;100820.84;10227940;28;20236;-75
2021/08/12 01:11:09;;;;;;;16.15;11.38;;;;;;;15.45;65.86;100824.84;10228885;28;20255;-75
2021/08/12 01:16:20;;;;;;;15.88;10.38;;;;;;;15.40;66.46;100827.13;10230143;28;20264;-75
2021/08/12 01:21:50;;;;;;;16.27;11.13;;;;;;;15.37;66.50;100824.72;10229478;28;20283;-75
2021/08/12 01:26:57;;;;;;;15.50;10.98;;;;;;;15.21;66.85;100826.13;10228238;28;20741;-75
2021/08/12 01:32:07;;;;;;;16.48;11.45;;;;;;;15.14;66.86;100837.66;10227070;28;20982;-76
2021/08/12 01:37:12;;;;;;;12.13;9.80;;;;;;;15.14;67.08;100829.53;10228149;28;20307;-76
2021/08/12 01:42:16;;;;;;;14.02;10.73;;;;;;;15.09;67.49;100824.59;10229772;28;20364;-75
2021/08/12 01:47:23;;;;;;;14.23;10.38;;;;;;;15.10;67.15;100820.88;10227448;28;20240;-75
2021/08/12 01:52:31;;;;;;;15.40;10.95;;;;;;;15.15;67.26;100820.44;10227921;28;20229;-74
2021/08/12 01:57:34;;;;;;;15.68;11.18;;;;;;;15.17;67.25;100815.75;10225241;28;20232;-75
2021/08/12 02:02:38;;;;;;;14.18;10.82;;;;;;;15.23;66.85;100817.88;10225877;28;20232;-75
2021/08/12 02:07:45;;;;;;;16.38;10.75;;;;;;;15.21;67.05;100827.97;10227341;28;20239;-75
2021/08/12 02:12:48;;;;;;;16.73;10.55;;;;;;;15.15;66.86;100815.03;10225279;28;20929;-75
2021/08/12 02:17:52;;;;;;;15.40;9.90;;;;;;;15.09;67.20;100800.22;10226216;28;20236;-75
2021/08/12 02:23:02;;;;;;;13.45;9.90;;;;;;;15.11;67.27;100813.59;10231602;28;21019;-76
2021/08/12 02:28:08;;;;;;;15.43;10.48;;;;;;;15.24;66.94;100806.88;10230228;28;20243;-75
2021/08/12 02:33:14;;;;;;;13.45;10.13;;;;;;;15.18;66.95;100812.88;10224497;28;20668;-75
2021/08/12 02:38:20;;;;;;;12.85;9.80;;;;;;;15.19;66.89;100806.50;10223192;28;20244;-75
2021/08/12 02:43:25;;;;;;;15.23;10.85;;;;;;;15.21;66.83;100811.75;10226375;28;20338;-74
2021/08/12 02:48:30;;;;;;;15.45;10.45;;;;;;;15.12;67.06;100799.94;10228170;28;20239;-76
2021/08/12 02:53:37;;;;;;;16.38;10.52;;;;;;;15.07;67.06;100813.03;10225721;28;20596;-74
2021/08/12 02:58:42;;;;;;;13.57;9.82;;;;;;;15.09;67.50;100810.22;10226841;28;20362;-74
2021/08/12 03:03:48;;;;;;;13.70;10.35;;;;;;;15.04;67.30;100805.22;10223951;28;20322;-76
2021/08/12 03:08:55;;;;;;;17.23;10.27;;;;;;;15.01;67.73;100805.50;10225754;28;20270;-76
2021/08/12 03:13:58;;;;;;;14.15;10.20;;;;;;;14.96;67.98;100799.66;10226740;28;20235;-74
2021/08/12 03:19:03;;;;;;;16.23;10.80;;;;;;;14.90;67.95;100797.53;10227868;28;20247;-75
2021/08/12 03:24:08;;;;;;;15.65;9.75;;;;;;;14.95;68.13;100797.97;10223379;28;20247;-75
2021/08/12 03:29:11;;;;;;;13.27;9.43;;;;;;;15.05;67.93;100801.50;10233824;28;21361;-76
2021/08/12 03:34:14;;;;;;;13.13;9.45;;;;;;;15.13;67.93;100798.94;10227374;28;20240;-75
2021/08/12 03:39:18;;;;;;;14.45;9.80;;;;;;;15.24;67.53;100787.94;10234446;28;21706;-75
2021/08/12 03:44:21;;;;;;;12.38;8.63;;;;;;;15.19;67.47;100789.38;10231919;28;20244;-74
2021/08/12 03:49:38;;;;;;;19.48;10.90;;;;;;;15.15;67.69;100787.97;10229938;28;20239;-75
2021/08/12 03:54:42;;;;;;;13.55;9.90;;;;;;;15.18;67.97;100782.28;10230338;28;20236;-74
2021/08/12 03:59:46;;;;;;;11.80;8.13;;;;;;;15.18;67.84;100790.41;10224205;28;20311;-75
2021/08/12 04:04:48;;;;;;;10.82;7.55;;;;;;;15.12;68.21;100796.38;10226183;28;20236;-74
2021/08/12 04:09:53;;;;;;;11.40;7.72;;;;;;;15.11;68.01;100797.38;10232871;28;20322;-75
2021/08/12 04:14:56;;;;;;;11.23;7.47;;;;;;;15.11;68.23;100811.78;10230716;28;20753;-75
2021/08/12 04:19:59;;;;;;;9.05;6.75;;;;;;;15.14;68.11;100791.66;10234582;28;20311;-74
2021/08/12 04:25:04;;;;;;;15.60;7.03;;;;;;;15.20;67.89;100797.38;10228287;28;20236;-75
2021/08/12 04:30:09;;;;;;;11.85;8.07;;;;;;;15.27;68.01;100808.44;10230994;28;20267;-74
2021/08/12 04:35:12;;;;;;;13.30;7.40;;;;;;;15.32;67.96;100813.44;10231556;28;20902;-75
2021/08/12 04:40:18;;;;;;;14.15;8.77;;;;;;;15.24;68.09;100812.31;10229021;28;20376;-76
2021/08/12 04:45:22;;;;;;;9.85;7.35;;;;;;;15.22;68.19;100819.72;10230828;28;20244;-75
2021/08/12 04:50:26;;;;;;;12.10;7.63;;;;;;;15.31;68.18;100799.06;10229303;28;20243;-74
2021/08/12 04:55:30;;;;;;;14.30;9.57;;;;;;;15.32;68.36;100806.16;10227829;28;20789;-74
2021/08/12 05:00:35;;;;;;;14.32;10.00;;;;;;;15.36;68.24;100798.63;10224960;28;20716;-75
2021/08/12 05:05:38;;;;;;;12.82;8.25;;;;;;;15.44;68.21;100801.47;10229133;28;20261;-75
2021/08/12 05:10:46;;;;;;;15.63;9.85;;;;;;;15.63;67.85;100811.41;10228632;28;20238;-74
2021/08/12 05:15:50;;;;;;;13.18;8.18;;;;;;;15.97;67.10;100817.13;10227836;28;20605;-74
2021/08/12 05:20:52;;;;;;;15.13;8.50;;;;;;;16.30;66.53;100817.59;10228883;28;20430;-74
2021/08/12 05:25:57;;;;;;;13.57;7.15;;;;;;;16.49;65.72;100809.34;10230031;28;20343;-75
2021/08/12 05:31:02;;;;;;;8.85;6.15;;;;;;;16.62;66.13;100810.81;10226680;28;20628;-75
2021/08/12 05:36:07;;;;;;;11.98;7.25;;;;;;;16.59;65.85;100804.69;10223116;28;20733;-73
2021/08/12 05:41:12;;;;;;;9.18;6.18;;;;;;;16.61;65.86;100814.53;10226512;28;20717;-74
2021/08/12 05:46:15;;;;;;;9.15;6.18;;;;;;;16.64;66.24;100806.09;10225607;28;20240;-75
2021/08/12 05:51:19;;;;;;;6.28;5.25;;;;;;;16.69;66.09;100806.47;10223954;28;20603;-74
2021/08/12 05:56:24;;;;;;;7.53;5.95;;;;;;;16.71;66.20;100815.31;10209445;28;20355;-74
2021/08/12 06:01:27;;;;;;;10.32;6.35;;;;;;;16.75;66.20;100803.16;10215317;28;20231;-75
2021/08/12 06:06:33;;;;;;;10.32;6.68;;;;;;;16.79;65.87;100810.81;10223174;28;20375;-74
2021/08/12 06:11:37;;;;;;;11.10;8.23;;;;;;;16.92;66.15;100806.84;10228206;28;20243;-74
2021/08/12 06:16:40;;;;;;;13.57;9.60;;;;;;;16.97;66.10;100807.25;10225145;28;20947;-74
2021/08/12 06:21:43;;;;;;;12.13;9.27;;;;;;;17.06;66.19;100808.16;10231651;28;20232;-76
2021/08/12 06:26:47;;;;;;;13.70;9.57;;;;;;;17.28;65.75;100809.56;10227949;28;20247;-75
2021/08/12 06:31:50;;;;;;;11.45;7.10;;;;;;;17.37;65.23;100814.06;10225854;28;20228;-74
2021/08/12 06:36:53;;;;;;;9.80;6.50;;;;;;;17.70;64.93;100815.13;10215776;28;20268;-74
2021/08/12 06:41:58;;;;;;;10.40;7.15;;;;;;;18.09;63.67;100810.09;10221567;28;21565;-74
2021/08/12 06:47:21;;;;;;;11.35;6.53;;;;;;;18.17;63.18;100806.56;10226208;28;20386;-76
2021/08/12 06:52:28;;;;;;;10.30;7.63;;;;;;;18.16;63.43;100812.19;10225098;28;20633;-75
2021/08/12 06:57:37;;;;;;;9.80;6.13;;;;;;;18.40;62.80;100808.69;10224977;28;20240;-75
2021/08/12 07:02:40;;;;;;;10.57;6.07;;;;;;;18.65;61.92;100813.19;10216037;28;20235;-76
2021/08/12 07:07:44;;;;;;;8.90;6.65;;;;;;;18.95;61.83;100813.56;10232569;28;20243;-74
2021/08/12 07:12:51;;;;;;;9.18;7.03;;;;;;;19.48;60.96;100817.66;10225325;28;20225;-74
2021/08/12 07:17:54;;;;;;;9.95;7.13;;;;;;;19.71;59.41;100816.97;10221490;28;20242;-74
2021/08/12 07:22:58;;;;;;;8.57;6.80;;;;;;;20.06;58.88;100821.13;10228494;28;20307;-75
2021/08/12 07:28:03;;;;;;;9.10;6.28;;;;;;;20.17;58.74;100818.00;10228153;28;20270;-75
2021/08/12 07:33:07;;;;;;;8.45;5.25;;;;;;;20.23;58.34;100830.09;10225688;28;20233;-74
2021/08/12 07:38:10;;;;;;;12.98;6.57;;;;;;;20.56;57.97;100826.19;10220018;28;20251;-74
2021/08/12 07:43:14;;;;;;;11.02;7.57;;;;;;;20.97;57.40;100825.09;10215354;28;20762;-74
2021/08/12 07:48:18;;;;;;;11.77;5.68;;;;;;;21.50;56.43;100815.09;10215798;28;20236;-74
2021/08/12 07:53:20;;;;;;;9.10;7.07;;;;;;;21.31;54.95;100818.34;10226169;28;20243;-74
2021/08/12 07:58:25;;;;;;;8.35;6.95;;;;;;;21.43;55.29;100812.25;10224366;28;20275;-74
2021/08/12 08:03:28;;;;;;;10.85;6.65;;;;;;;22.10;54.45;100807.78;10221597;28;20240;-74
2021/08/12 08:08:31;;;;;;;10.02;6.70;;;;;;;22.49;52.35;100803.88;10222926;28;20314;-74
2021/08/12 08:13:35;;;;;;;9.40;6.65;;;;;;;22.85;52.30;100808.50;10230996;28;20244;-75
2021/08/12 08:18:38;;;;;;;9.82;6.25;;;;;;;22.99;50.85;100813.91;10236028;28;20410;-74
2021/08/12 08:23:41;;;;;;;9.77;5.65;;;;;;;23.18;50.86;100809.69;10236059;28;20280;-75
2021/08/12 08:28:46;;;;;;;9.20;6.20;;;;;;;23.51;50.75;100803.66;10223768;28;20370;-75
2021/08/12 08:33:49;;;;;;;5.68;4.32;;;;;;;23.64;50.33;100802.88;10219896;28;20232;-75
2021/08/12 08:38:52;;;;;;;7.20;5.00;;;;;;;23.99;50.02;100808.41;10231177;28;20287;-75
2021/08/12 08:43:56;;;;;;;7.00;5.18;;;;;;;23.96;49.86;100804.16;10229477;28;22076;-75
2021/08/12 08:49:03;;;;;;;7.90;5.43;;;;;;;23.82;49.39;100802.41;10236503;28;20244;-74
2021/08/12 08:54:06;;;;;;;7.70;4.57;;;;;;;23.74;49.87;100805.28;10235668;28;20240;-74
2021/08/12 08:59:11;;;;;;;9.57;5.30;;;;;;;23.88;49.71;100791.44;10238775;28;20244;-74
2021/08/12 09:04:14;;;;;;;7.45;5.45;;;;;;;24.15;49.03;100799.81;10235403;28;20251;-74
2021/08/12 09:09:18;;;;;;;7.68;5.30;;;;;;;25.05;47.34;100794.22;10236835;28;20341;-74
2021/08/12 09:14:38;;;;;;;8.20;5.40;;;;;;;26.13;43.87;100793.88;10236140;28;20240;-74
2021/08/12 09:19:41;;;;;;;9.10;5.45;;;;;;;25.38;46.19;100789.56;10236122;28;20239;-75
2021/08/12 09:24:49;;;;;;;6.15;4.90;;;;;;;25.44;46.43;100784.28;10231833;28;20315;-75
2021/08/12 09:30:12;;;;;;;8.05;5.05;;;;;;;25.71;45.40;100782.38;10234427;28;20312;-74
2021/08/12 09:35:26;;;;;;;4.97;4.28;;;;;;;25.90;44.26;100791.63;10233169;28;20279;-74
2021/08/12 09:40:29;;;;;;;5.57;4.30;;;;;;;25.60;45.42;100783.84;10236127;28;20347;-75
2021/08/12 09:45:34;;;;;;;6.93;4.63;;;;;;;25.17;45.51;100789.78;10229174;28;20236;-76
2021/08/12 09:50:38;;;;;;;6.80;4.65;;;;;;;25.09;45.97;100795.47;10229976;28;20236;-74
2021/08/12 09:55:41;;;;;;;6.00;4.50;;;;;;;25.01;45.55;100791.00;10230083;28;20350;-74
2021/08/12 10:00:47;;;;;;;5.97;4.30;;;;;;;26.08;43.49;100792.63;10227340;28;20239;-74
2021/08/12 10:05:56;;;;;;;7.43;4.95;;;;;;;25.29;44.96;100795.50;10227223;28;20244;-74
2021/08/12 10:11:16;;;;;;;6.60;4.95;;;;;;;26.50;42.62;100793.09;10229951;28;20710;-75
2021/08/12 10:16:21;;;;;;;8.15;5.65;;;;;;;25.41;44.42;100804.78;10234756;28;20352;-75
2021/08/12 10:21:26;;;;;;;7.13;5.25;;;;;;;26.15;43.08;100798.09;10229467;28;20232;-74
2021/08/12 10:26:31;;;;;;;6.82;4.72;;;;;;;26.46;42.29;100802.84;10228536;28;20271;-74
2021/08/12 10:31:36;;;;;;;5.82;4.68;;;;;;;26.72;41.21;100792.78;10188363;28;20243;-73
2021/08/12 10:36:39;;;;;;;5.90;5.00;;;;;;;26.87;40.73;100781.47;10217175;28;20236;-75
2021/08/12 10:41:43;;;;;;;5.53;4.50;;;;;;;27.23;40.65;100785.41;10228958;28;20233;-75
2021/08/12 10:46:47;;;;;;;7.00;5.35;;;;;;;28.17;38.87;100784.28;10219432;28;20255;-74
2021/08/12 10:52:00;;;;;;;6.30;4.38;;;;;;;28.79;37.87;100778.56;10223961;28;20260;-74
2021/08/12 10:57:16;;;;;;;5.38;3.90;;;;;;;27.53;39.78;100788.34;10212525;28;20239;-74
2021/08/12 11:02:45;;;;;;;7.03;5.35;;;;;;;28.32;37.90;100788.56;10217671;28;20232;-74
2021/08/12 11:07:53;;;;;;;6.70;5.10;;;;;;;27.23;39.77;100791.78;10220653;28;20236;-74
2021/08/12 11:13:05;;;;;;;7.93;5.60;;;;;;;27.23;38.80;100789.00;10215910;28;20233;-74
2021/08/12 11:18:12;;;;;;;6.80;4.97;;;;;;;27.49;37.80;100785.22;10218985;28;20245;-73
2021/08/12 11:23:40;;;;;;;5.07;4.53;;;;;;;28.48;36.85;100786.00;10217727;28;20240;-73
2021/08/12 11:28:50;;;;;;;6.10;5.32;;;;;;;28.49;37.17;100773.84;10228198;28;20236;-74
2021/08/12 11:33:59;;;;;;;6.22;5.28;;;;;;;29.21;35.27;100775.81;10222236;28;20235;-75
2021/08/12 11:39:05;;;;;;;7.30;6.15;;;;;;;27.68;38.43;100765.94;10227672;28;20267;-73
2021/08/12 11:44:11;;;;;;;7.65;6.18;;;;;;;28.67;36.69;100764.72;10225008;28;20827;-73
2021/08/12 11:49:17;;;;;;;9.20;6.78;;;;;;;28.30;36.94;100772.19;10232931;28;20235;-74
2021/08/12 11:54:26;;;;;;;7.75;6.05;;;;;;;29.91;34.97;100763.88;10234487;28;20244;-75
2021/08/12 11:59:30;;;;;;;11.77;6.47;;;;;;;30.06;33.74;100760.59;10233682;28;20282;-74
2021/08/12 12:04:35;;;;;;;8.10;6.60;;;;;;;29.77;34.02;100763.28;10234171;28;20240;-74
2021/08/12 12:09:38;;;;;;;8.60;7.30;;;;;;;30.95;31.58;100759.25;10237959;28;20247;-74
2021/08/12 12:14:43;;;;;;;8.15;6.47;;;;;;;29.49;33.75;100755.72;10235213;28;20235;-74
2021/08/12 12:20:13;;;;;;;7.32;5.85;;;;;;;31.03;32.77;100750.53;10166552;28;73125;-73
2021/08/12 12:25:20;;;;;;;8.57;7.18;;;;;;;31.36;32.48;100749.69;10210368;28;20245;-75
2021/08/12 12:30:24;;;;;;;8.23;6.75;;;;;;;30.20;33.95;100741.78;10208704;28;20244;-74
2021/08/12 12:35:29;;;;;;;8.27;6.53;;;;;;;31.52;32.86;100748.81;10194498;28;20240;-74
2021/08/12 12:40:35;;;;;;;8.98;7.00;;;;;;;31.24;31.49;100743.38;10194161;28;20299;-75
2021/08/12 12:45:45;;;;;;;7.97;6.32;;;;;;;30.28;33.57;100741.41;10194800;28;20239;-73
2021/08/12 12:50:51;;;;;;;6.97;6.25;;;;;;;32.09;31.55;100736.56;10194545;28;21103;-75
2021/08/12 12:55:54;;;;;;;6.85;6.03;;;;;;;32.36;30.35;100735.75;10195106;28;20706;-75
2021/08/12 13:01:03;;;;;;;8.00;6.80;;;;;;;31.38;31.25;100735.53;10193701;28;20718;-74
2021/08/12 13:06:09;;;;;;;7.05;6.05;;;;;;;29.20;35.59;100740.06;10193452;28;20251;-74
2021/08/12 13:11:14;;;;;;;7.95;6.65;;;;;;;27.64;37.59;100745.38;10195578;28;20316;-73
2021/08/12 13:16:19;;;;;;;6.93;6.22;;;;;;;30.87;34.51;100746.66;10196227;28;20244;-73
2021/08/12 13:21:30;;;;;;;8.32;5.97;;;;;;;33.09;30.41;100739.78;10190352;28;20933;-73
2021/08/12 13:26:35;;;;;;;7.97;5.90;;;;;;;30.37;32.96;100739.06;10196816;28;20755;-73
2021/08/12 13:31:41;;;;;;;8.00;6.07;;;;;;;29.81;33.93;100734.03;10192365;28;20256;-74
2021/08/12 13:36:45;;;;;;;7.85;6.43;;;;;;;29.18;35.49;100733.94;10203523;28;20244;-74
2021/08/12 13:41:54;;;;;;;8.77;7.40;;;;;;;30.16;33.72;100723.97;10193918;28;20772;-74
2021/08/12 13:46:58;;;;;;;6.57;5.85;;;;;;;30.38;33.56;100721.34;10192877;28;20241;-74
2021/08/12 13:52:04;;;;;;;7.07;5.88;;;;;;;30.47;33.59;100730.91;10195707;28;20233;-72
2021/08/12 13:57:07;;;;;;;8.80;6.78;;;;;;;29.38;35.17;100726.97;10188444;28;20251;-73
2021/08/12 14:02:11;;;;;;;6.85;6.03;;;;;;;29.17;35.15;100716.50;10190886;28;20251;-73
2021/08/12 14:07:15;;;;;;;6.05;5.53;;;;;;;28.67;36.80;100719.66;10195547;28;20236;-74
2021/08/12 14:12:18;;;;;;;6.22;5.28;;;;;;;28.09;37.42;100720.25;10192848;28;20622;-75
2021/08/12 14:17:22;;;;;;;5.95;5.18;;;;;;;27.92;36.96;100728.28;10191500;28;20814;-75
2021/08/12 14:22:28;;;;;;;6.15;5.50;;;;;;;27.29;36.99;100726.59;10202838;28;20229;-75
2021/08/12 14:27:31;;;;;;;6.18;5.53;;;;;;;27.11;39.06;100722.75;10190390;28;20260;-75
2021/08/12 14:32:34;;;;;;;6.53;5.75;;;;;;;26.96;38.69;100719.50;10190939;28;20252;-74
2021/08/12 14:37:39;;;;;;;6.18;5.53;;;;;;;27.20;37.73;100719.69;10194630;28;20249;-75
2021/08/12 14:42:41;;;;;;;8.23;6.30;;;;;;;27.32;38.03;100715.97;10198774;28;20244;-74
2021/08/12 14:47:44;;;;;;;6.22;5.38;;;;;;;28.00;37.10;100714.19;10187197;28;20272;-74
2021/08/12 14:52:49;;;;;;;7.28;5.90;;;;;;;28.19;36.29;100715.84;10186340;28;20715;-75
2021/08/12 14:57:52;;;;;;;7.13;6.32;;;;;;;28.03;36.88;100713.75;10202249;28;20260;-74
2021/08/12 15:02:55;;;;;;;8.20;5.88;;;;;;;27.55;38.63;100722.78;10190301;28;20733;-74
2021/08/12 15:08:00;;;;;;;7.70;6.47;;;;;;;26.57;39.25;100721.44;10187841;28;20706;-75
2021/08/12 15:13:04;;;;;;;7.40;6.03;;;;;;;26.48;38.87;100709.84;10190235;28;20240;-74
2021/08/12 15:18:07;;;;;;;10.55;6.38;;;;;;;26.37;39.03;100723.50;10190505;28;20251;-75
2021/08/12 15:23:11;;;;;;;6.20;5.60;;;;;;;27.15;38.39;100721.22;10207739;28;20241;-75
2021/08/12 15:28:15;;;;;;;6.85;6.15;;;;;;;27.63;38.23;100714.19;10195656;28;20241;-75
2021/08/12 15:33:18;;;;;;;8.57;5.85;;;;;;;27.41;38.45;100702.75;10193524;28;20253;-75
2021/08/12 15:38:24;;;;;;;8.48;6.15;;;;;;;28.09;37.17;100707.28;10190138;28;20734;-74
2021/08/12 15:43:27;;;;;;;7.45;6.38;;;;;;;28.90;35.60;100697.56;10192796;28;20229;-74
2021/08/12 15:48:30;;;;;;;7.72;6.50;;;;;;;28.41;36.21;100705.13;10194258;28;20239;-74
2021/08/12 15:53:34;;;;;;;7.65;6.20;;;;;;;28.49;37.33;100704.78;10193081;28;20236;-74
2021/08/12 15:58:38;;;;;;;7.40;6.63;;;;;;;28.85;35.83;100691.94;10209464;28;20253;-74
2021/08/12 16:03:41;;;;;;;8.20;6.63;;;;;;;28.60;37.25;100699.56;10196598;28;20973;-75
2021/08/12 16:08:45;;;;;;;8.30;7.30;;;;;;;28.57;36.67;100694.50;10195025;28;20240;-75
2021/08/12 16:13:49;;;;;;;7.93;6.68;;;;;;;28.15;36.19;100700.00;10194124;28;20236;-75
2021/08/12 16:18:52;;;;;;;7.97;6.65;;;;;;;27.46;37.44;100699.31;10188799;28;20265;-75
2021/08/12 16:23:57;;;;;;;7.78;6.78;;;;;;;27.44;37.95;100691.28;10189336;28;20230;-75
2021/08/12 16:29:00;;;;;;;7.68;6.43;;;;;;;27.16;39.11;100680.72;10191861;28;20241;-75
2021/08/12 16:34:03;;;;;;;9.40;7.05;;;;;;;27.08;40.33;100689.28;10190737;28;20236;-75
2021/08/12 16:39:07;;;;;;;9.45;6.80;;;;;;;26.83;40.17;100687.38;10192414;28;20315;-74
2021/08/12 16:44:10;;;;;;;8.32;6.78;;;;;;;26.73;41.20;100689.75;10191931;28;20296;-75
2021/08/12 16:49:13;;;;;;;11.45;7.47;;;;;;;26.81;40.22;100685.88;10190729;28;20710;-74
2021/08/12 16:54:17;;;;;;;10.40;6.63;;;;;;;26.41;40.71;100687.03;10191625;28;20678;-75
2021/08/12 16:59:21;;;;;;;7.40;6.65;;;;;;;26.40;41.26;100684.50;10189610;28;20241;-74
2021/08/12 17:04:23;;;;;;;7.57;6.68;;;;;;;26.37;41.18;100688.53;10191067;28;20236;-75
2021/08/12 17:09:28;;;;;;;7.25;5.88;;;;;;;26.10;41.62;100689.72;10189617;28;20265;-75
2021/08/12 17:14:30;;;;;;;7.70;6.50;;;;;;;25.99;42.35;100683.00;10191119;28;20245;-75
2021/08/12 17:19:34;;;;;;;9.45;6.82;;;;;;;25.86;42.15;100683.88;10181979;28;20244;-76
2021/08/12 17:24:38;;;;;;;9.50;6.72;;;;;;;25.67;42.93;100690.31;10192545;28;20240;-76
2021/08/12 17:29:41;;;;;;;8.95;6.03;;;;;;;25.60;43.21;100691.16;10195184;28;20263;-75
2021/08/12 17:34:44;;;;;;;9.65;7.38;;;;;;;25.55;43.60;100690.97;10196327;28;20597;-76
2021/08/12 17:39:48;;;;;;;10.68;7.05;;;;;;;25.37;44.24;100697.16;10194316;28;20245;-75
2021/08/12 17:44:51;;;;;;;9.10;6.95;;;;;;;25.08;44.96;100692.13;10192489;28;20786;-77
2021/08/12 17:49:54;;;;;;;7.60;6.50;;;;;;;24.80;44.73;100690.41;10193215;28;20307;-75
2021/08/12 17:54:58;;;;;;;7.88;6.30;;;;;;;24.67;45.97;100696.72;10196341;28;20306;-75
2021/08/12 18:00:02;;;;;;;9.35;6.38;;;;;;;24.56;47.08;100702.00;10193648;28;20264;-74
2021/08/12 18:05:14;;;;;;;8.32;6.13;;;;;;;24.36;47.72;100693.72;10191770;28;20248;-75
2021/08/12 18:10:18;;;;;;;9.95;7.50;;;;;;;24.24;47.93;100704.44;10190750;28;20241;-76
2021/08/12 18:15:21;;;;;;;8.30;6.30;;;;;;;23.92;48.38;100701.38;10189353;28;20245;-74
2021/08/12 18:20:25;;;;;;;10.35;6.40;;;;;;;23.71;47.98;100698.72;10191113;28;20233;-74
2021/08/12 18:25:29;;;;;;;8.63;6.43;;;;;;;23.61;47.61;100694.47;10190870;28;20245;-74
2021/08/12 18:30:32;;;;;;;8.95;6.35;;;;;;;23.50;49.39;100708.72;10191124;28;20241;-74
2021/08/12 18:35:35;;;;;;;7.63;6.45;;;;;;;23.11;50.63;100712.03;10191699;28;20930;-74
2021/08/12 18:40:40;;;;;;;10.75;6.63;;;;;;;23.05;51.28;100708.19;10190996;28;20233;-75
2021/08/12 18:45:43;;;;;;;10.02;6.25;;;;;;;22.95;50.88;100721.38;10193145;28;20317;-75
2021/08/12 18:50:46;;;;;;;7.47;6.10;;;;;;;22.81;50.92;100725.03;10193639;28;20249;-74
2021/08/12 18:55:51;;;;;;;8.43;6.93;;;;;;;22.65;50.98;100717.94;10191461;28;20249;-76
2021/08/12 19:00:54;;;;;;;7.80;6.00;;;;;;;22.65;50.97;100723.41;10195151;28;20278;-75
2021/08/12 19:05:57;;;;;;;10.75;6.65;;;;;;;22.59;50.29;100729.66;10191111;28;20240;-76
2021/08/12 19:11:01;;;;;;;7.93;5.70;;;;;;;22.51;50.72;100731.47;10192701;28;20768;-75
2021/08/12 19:16:05;;;;;;;7.07;6.30;;;;;;;22.44;51.11;100732.47;10192358;28;20233;-75
2021/08/12 19:21:08;;;;;;;10.10;6.32;;;;;;;22.17;51.09;100740.34;10194001;28;20718;-76
2021/08/12 19:26:12;;;;;;;11.48;7.15;;;;;;;22.05;51.30;100745.47;10191858;28;20741;-75
2021/08/12 19:31:15;;;;;;;10.65;6.10;;;;;;;22.07;51.05;100746.09;10194029;28;20652;-74
2021/08/12 19:36:18;;;;;;;9.18;5.57;;;;;;;21.94;51.40;100747.81;10194925;28;20980;-74
2021/08/12 19:41:24;;;;;;;9.32;5.70;;;;;;;21.84;51.06;100743.50;10194870;28;20404;-74
2021/08/12 19:46:27;;;;;;;9.73;5.75;;;;;;;21.67;51.39;100742.81;10194668;28;20877;-74
2021/08/12 19:51:31;;;;;;;9.15;5.43;;;;;;;21.51;51.89;100753.09;10194888;28;20331;-74
2021/08/12 19:56:35;;;;;;;8.77;5.82;;;;;;;21.28;52.04;100753.16;10196040;28;20319;-74
2021/08/12 20:01:38;;;;;;;9.52;5.78;;;;;;;21.06;52.30;100758.47;10195448;28;20257;-74
2021/08/12 20:06:41;;;;;;;9.73;5.63;;;;;;;21.04;52.87;100770.63;10194882;28;20590;-74
2021/08/12 20:11:46;;;;;;;8.70;5.68;;;;;;;20.98;52.41;100770.31;10193810;28;20304;-74
2021/08/12 20:16:48;;;;;;;8.55;5.50;;;;;;;20.93;52.89;100772.72;10194403;28;21099;-74
2021/08/12 20:21:51;;;;;;;10.50;6.15;;;;;;;21.01;53.00;100774.56;10195059;28;20261;-75
2021/08/12 20:26:56;;;;;;;8.27;5.80;;;;;;;21.11;52.69;100777.88;10194336;28;20241;-74
2021/08/12 20:31:58;;;;;;;12.48;7.10;;;;;;;21.31;53.49;100786.44;10193580;28;20443;-74
2021/08/12 20:37:01;;;;;;;9.00;5.88;;;;;;;21.33;53.63;100787.06;10189949;28;20390;-74
2021/08/12 20:42:06;;;;;;;9.15;6.05;;;;;;;21.31;53.28;100797.38;10193233;28;20656;-73
2021/08/12 20:47:09;;;;;;;8.20;5.43;;;;;;;21.13;53.33;100799.56;10189886;28;20320;-74
2021/08/12 20:52:12;;;;;;;9.77;6.25;;;;;;;21.26;53.64;100799.78;10193634;28;21245;-74
2021/08/12 20:57:16;;;;;;;11.70;6.88;;;;;;;21.35;53.32;100795.09;10194072;28;20718;-74
2021/08/12 21:02:19;;;;;;;12.52;6.97;;;;;;;21.30;53.37;100803.84;10190578;28;20237;-74
2021/08/12 21:07:22;;;;;;;11.23;8.00;;;;;;;21.29;53.78;100804.88;10191396;28;20739;-73
2021/08/12 21:12:28;;;;;;;11.70;9.13;;;;;;;21.27;54.34;100803.38;10193037;28;20237;-74
2021/08/12 21:17:31;;;;;;;14.20;8.50;;;;;;;21.14;54.34;100804.81;10192431;28;20248;-73
2021/08/12 21:22:34;;;;;;;9.82;7.18;;;;;;;20.92;54.67;100811.97;10192834;28;20276;-74
2021/08/12 21:27:39;;;;;;;10.30;7.22;;;;;;;20.82;55.36;100816.84;10190231;28;20244;-74
2021/08/12 21:32:42;;;;;;;10.02;7.15;;;;;;;20.87;55.49;100813.53;10189055;28;20303;-74
2021/08/12 21:37:45;;;;;;;11.18;7.22;;;;;;;20.76;56.07;100804.78;10192487;28;20931;-74
2021/08/12 21:42:49;;;;;;;11.02;6.13;;;;;;;20.79;56.51;100811.75;10190985;28;20284;-74
2021/08/12 21:47:52;;;;;;;8.52;6.75;;;;;;;20.73;56.69;100812.44;10192654;28;20237;-73
2021/08/12 21:52:55;;;;;;;8.75;7.28;;;;;;;20.65;57.53;100799.72;10195198;28;20291;-74
2021/08/12 21:57:59;;;;;;;10.20;7.65;;;;;;;20.68;57.58;100799.38;10195576;28;20316;-74
2021/08/12 22:03:02;;;;;;;11.85;7.97;;;;;;;20.61;57.95;100797.53;10189709;28;20245;-74
2021/08/12 22:08:06;;;;;;;11.73;8.20;;;;;;;20.62;58.16;100791.88;10187531;28;20235;-74
2021/08/12 22:13:11;;;;;;;9.85;8.38;;;;;;;20.58;58.38;100786.97;10188426;28;20966;-74
2021/08/12 22:18:15;;;;;;;11.80;7.80;;;;;;;20.49;58.31;100791.66;10188200;28;20339;-74
2021/08/12 22:23:19;;;;;;;16.17;8.88;;;;;;;20.38;58.25;100792.91;10189422;28;20248;-74
2021/08/12 22:28:24;;;;;;;11.43;8.20;;;;;;;20.26;58.60;100797.00;10185876;28;20252;-74
2021/08/12 22:33:27;;;;;;;14.18;8.32;;;;;;;20.10;58.67;100796.06;10187451;28;20247;-73
2021/08/12 22:38:30;;;;;;;13.05;8.88;;;;;;;19.81;59.84;100802.13;10188367;28;20257;-74
2021/08/12 22:43:34;;;;;;;12.13;8.85;;;;;;;19.93;59.92;100790.84;10187120;28;20331;-73
2021/08/12 22:48:37;;;;;;;10.10;8.23;;;;;;;20.15;59.40;100795.50;10187619;28;20264;-74
2021/08/12 22:53:40;;;;;;;13.25;8.93;;;;;;;20.16;59.48;100799.09;10188883;28;20276;-73
2021/08/12 22:58:44;;;;;;;11.65;8.32;;;;;;;20.07;59.52;100792.81;10188739;28;20364;-74
2021/08/12 23:03:47;;;;;;;11.13;8.95;;;;;;;20.00;59.98;100789.13;10189008;28;20233;-74
2021/08/12 23:08:50;;;;;;;13.00;9.50;;;;;;;19.90;60.04;100783.88;10188332;28;20363;-73
2021/08/12 23:13:54;;;;;;;11.98;8.68;;;;;;;19.74;60.29;100775.75;10189402;28;20252;-73